sensor_id;sensor_type;location;lat;lon;timestamp;pressure;altitude;pressure_sealevel;temperature;humidity
12624;BME280;6377;42.836;23.998;2023-12-20T00:01:05;95883.69;;;1.26;100.00
12624;BME280;6377;42.836;23.998;2023-12-20T00:03:33;95949.09;;;1.67;100.00
12624;BME280;6377;42.836;23.998;2023-12-20T00:06:01;95920.88;;;1.50;100.00
12624;BME280;6377;42.836;23.998;2023-12-20T00:08:28;95913.44;;;1.57;100.00
12624;BME280;6377;42.836;23.998;2023-12-20T00:10:56;95914.41;;;1.67;100.00
12624;BME280;6377;42.836;23.998;2023-12-20T00:13:24;95898.97;;;1.75;100.00
12624;BME280;6377;42.836;23.998;2023-12-20T00:15:54;95873.88;;;1.52;100.00
12624;BME280;6377;42.836;23.998;2023-12-20T00:18:21;95880.38;;;1.68;100.00
12624;BME280;6377;42.836;23.998;2023-12-20T00:20:49;95916.16;;;1.78;100.00
12624;BME280;6377;42.836;23.998;2023-12-20T00:23:17;95854.66;;;1.20;100.00
12624;BME280;6377;42.836;23.998;2023-12-20T00:25:54;95872.06;;;1.30;100.00
12624;BME280;6377;42.836;23.998;2023-12-20T00:28:24;95918.41;;;1.49;100.00
12624;BME280;6377;42.836;23.998;2023-12-20T00:30:54;95847.78;;;1.19;100.00
12624;BME280;6377;42.836;23.998;2023-12-20T00:33:21;95904.41;;;1.28;100.00
12624;BME280;6377;42.836;23.998;2023-12-20T00:35:49;95797.31;;;0.75;100.00
12624;BME280;6377;42.836;23.998;2023-12-20T00:38:20;95856.66;;;1.38;100.00
12624;BME280;6377;42.836;23.998;2023-12-20T00:40:51;95905.88;;;1.76;100.00
12624;BME280;6377;42.836;23.998;2023-12-20T00:43:19;95908.34;;;1.55;100.00
12624;BME280;6377;42.836;23.998;2023-12-20T00:45:47;95808.00;;;1.05;100.00
12624;BME280;6377;42.836;23.998;2023-12-20T00:48:16;95865.31;;;1.28;100.00
12624;BME280;6377;42.836;23.998;2023-12-20T00:50:44;95838.19;;;1.30;100.00
12624;BME280;6377;42.836;23.998;2023-12-20T00:53:12;95811.03;;;0.88;100.00
12624;BME280;6377;42.836;23.998;2023-12-20T00:55:42;95846.84;;;1.31;100.00
12624;BME280;6377;42.836;23.998;2023-12-20T00:58:14;95818.91;;;1.22;100.00
12624;BME280;6377;42.836;23.998;2023-12-20T01:00:43;95892.81;;;1.54;100.00
12624;BME280;6377;42.836;23.998;2023-12-20T01:03:11;95900.88;;;1.51;100.00
12624;BME280;6377;42.836;23.998;2023-12-20T01:05:42;95861.03;;;1.16;100.00
12624;BME280;6377;42.836;23.998;2023-12-20T01:08:10;95767.38;;;0.70;100.00
12624;BME280;6377;42.836;23.998;2023-12-20T01:10:38;95853.81;;;1.08;100.00
12624;BME280;6377;42.836;23.998;2023-12-20T01:13:09;95786.19;;;0.73;100.00
12624;BME280;6377;42.836;23.998;2023-12-20T01:15:37;95737.16;;;0.56;100.00
12624;BME280;6377;42.836;23.998;2023-12-20T01:18:05;95840.09;;;1.28;100.00
12624;BME280;6377;42.836;23.998;2023-12-20T01:20:35;95854.56;;;1.43;100.00
12624;BME280;6377;42.836;23.998;2023-12-20T01:23:05;95840.34;;;1.14;100.00
12624;BME280;6377;42.836;23.998;2023-12-20T01:25:32;95867.44;;;1.45;100.00
12624;BME280;6377;42.836;23.998;2023-12-20T01:28:00;95829.19;;;1.45;100.00
12624;BME280;6377;42.836;23.998;2023-12-20T01:30:31;95782.66;;;1.30;100.00
12624;BME280;6377;42.836;23.998;2023-12-20T01:33:01;95793.16;;;1.50;100.00
12624;BME280;6377;42.836;23.998;2023-12-20T01:35:32;95785.25;;;1.30;100.00
12624;BME280;6377;42.836;23.998;2023-12-20T01:38:00;95818.66;;;1.36;100.00
12624;BME280;6377;42.836;23.998;2023-12-20T01:40:44;95833.59;;;1.23;100.00
12624;BME280;6377;42.836;23.998;2023-12-20T01:46:44;95769.97;;;0.70;100.00
12624;BME280;6377;42.836;23.998;2023-12-20T01:49:40;95828.56;;;0.97;100.00
12624;BME280;6377;42.836;23.998;2023-12-20T01:52:13;95791.19;;;0.87;100.00
12624;BME280;6377;42.836;23.998;2023-12-20T01:54:45;95799.59;;;1.02;100.00
12624;BME280;6377;42.836;23.998;2023-12-20T01:57:19;95815.78;;;0.94;100.00
12624;BME280;6377;42.836;23.998;2023-12-20T01:59:48;95808.44;;;0.88;100.00
12624;BME280;6377;42.836;23.998;2023-12-20T02:02:19;95760.50;;;0.80;100.00
12624;BME280;6377;42.836;23.998;2023-12-20T02:04:48;95794.03;;;1.06;100.00
12624;BME280;6377;42.836;23.998;2023-12-20T02:07:17;95771.78;;;1.13;100.00
12624;BME280;6377;42.836;23.998;2023-12-20T02:09:46;95776.38;;;1.10;100.00
12624;BME280;6377;42.836;23.998;2023-12-20T02:12:14;95749.38;;;0.78;100.00
12624;BME280;6377;42.836;23.998;2023-12-20T02:14:43;95790.34;;;1.09;100.00
12624;BME280;6377;42.836;23.998;2023-12-20T02:17:14;95731.16;;;0.89;100.00
12624;BME280;6377;42.836;23.998;2023-12-20T02:19:44;95733.28;;;0.84;100.00
12624;BME280;6377;42.836;23.998;2023-12-20T02:22:16;95732.59;;;0.93;100.00
12624;BME280;6377;42.836;23.998;2023-12-20T02:24:44;95647.66;;;0.59;100.00
12624;BME280;6377;42.836;23.998;2023-12-20T02:27:15;95735.91;;;0.95;100.00
12624;BME280;6377;42.836;23.998;2023-12-20T02:29:47;95745.00;;;0.89;100.00
12624;BME280;6377;42.836;23.998;2023-12-20T02:32:14;95621.59;;;0.25;100.00
12624;BME280;6377;42.836;23.998;2023-12-20T02:34:46;95719.22;;;0.86;100.00
12624;BME280;6377;42.836;23.998;2023-12-20T02:37:16;95678.22;;;0.22;100.00
12624;BME280;6377;42.836;23.998;2023-12-20T02:39:44;95710.56;;;0.64;100.00
12624;BME280;6377;42.836;23.998;2023-12-20T02:42:11;95562.50;;;0.05;100.00
12624;BME280;6377;42.836;23.998;2023-12-20T02:44:40;95695.53;;;0.89;100.00
12624;BME280;6377;42.836;23.998;2023-12-20T02:47:10;95597.03;;;0.29;100.00
12624;BME280;6377;42.836;23.998;2023-12-20T02:49:38;95695.31;;;0.92;100.00
12624;BME280;6377;42.836;23.998;2023-12-20T02:52:06;95677.09;;;0.70;100.00
12624;BME280;6377;42.836;23.998;2023-12-20T02:54:35;95703.47;;;0.66;100.00
12624;BME280;6377;42.836;23.998;2023-12-20T02:57:06;95745.47;;;0.61;100.00
12624;BME280;6377;42.836;23.998;2023-12-20T02:59:37;95740.75;;;0.77;100.00
12624;BME280;6377;42.836;23.998;2023-12-20T03:02:05;95683.00;;;0.61;100.00
12624;BME280;6377;42.836;23.998;2023-12-20T03:04:35;95716.84;;;0.94;100.00
12624;BME280;6377;42.836;23.998;2023-12-20T03:07:04;95672.59;;;0.61;100.00
12624;BME280;6377;42.836;23.998;2023-12-20T03:09:36;95674.50;;;0.81;100.00
12624;BME280;6377;42.836;23.998;2023-12-20T03:12:07;95713.28;;;1.29;100.00
12624;BME280;6377;42.836;23.998;2023-12-20T03:14:34;95662.63;;;1.10;100.00
12624;BME280;6377;42.836;23.998;2023-12-20T03:17:02;95720.94;;;1.52;100.00
12624;BME280;6377;42.836;23.998;2023-12-20T03:19:29;95731.69;;;1.48;100.00
12624;BME280;6377;42.836;23.998;2023-12-20T03:21:57;95687.16;;;0.97;100.00
12624;BME280;6377;42.836;23.998;2023-12-20T03:24:37;95666.44;;;0.95;100.00
12624;BME280;6377;42.836;23.998;2023-12-20T03:29:59;95610.16;;;0.61;100.00
12624;BME280;6377;42.836;23.998;2023-12-20T03:32:27;95658.97;;;1.02;100.00
12624;BME280;6377;42.836;23.998;2023-12-20T03:34:57;95647.47;;;1.04;100.00
12624;BME280;6377;42.836;23.998;2023-12-20T03:37:28;95647.94;;;1.09;100.00
12624;BME280;6377;42.836;23.998;2023-12-20T03:39:57;95649.69;;;1.20;100.00
12624;BME280;6377;42.836;23.998;2023-12-20T03:42:26;95650.75;;;1.29;100.00
12624;BME280;6377;42.836;23.998;2023-12-20T03:44:54;95705.16;;;1.54;100.00
12624;BME280;6377;42.836;23.998;2023-12-20T03:47:25;95650.16;;;1.25;100.00
12624;BME280;6377;42.836;23.998;2023-12-20T03:49:53;95646.06;;;1.43;100.00
12624;BME280;6377;42.836;23.998;2023-12-20T03:52:20;95659.72;;;1.36;100.00
12624;BME280;6377;42.836;23.998;2023-12-20T03:54:48;95637.16;;;1.14;100.00
12624;BME280;6377;42.836;23.998;2023-12-20T03:57:17;95669.84;;;1.50;100.00
12624;BME280;6377;42.836;23.998;2023-12-20T03:59:44;95657.09;;;1.36;100.00
12624;BME280;6377;42.836;23.998;2023-12-20T04:02:16;95587.38;;;0.85;100.00
12624;BME280;6377;42.836;23.998;2023-12-20T04:04:52;95677.59;;;1.40;100.00
12624;BME280;6377;42.836;23.998;2023-12-20T04:07:22;95641.41;;;1.15;100.00
12624;BME280;6377;42.836;23.998;2023-12-20T04:09:57;95652.63;;;1.27;100.00
12624;BME280;6377;42.836;23.998;2023-12-20T04:12:34;95678.00;;;1.56;100.00
12624;BME280;6377;42.836;23.998;2023-12-20T04:15:05;95633.13;;;1.10;100.00
12624;BME280;6377;42.836;23.998;2023-12-20T04:27:05;95621.25;;;0.30;100.00
12624;BME280;6377;42.836;23.998;2023-12-20T05:14:14;95574.28;;;0.76;100.00
12624;BME280;6377;42.836;23.998;2023-12-20T05:17:13;95563.44;;;0.91;100.00
12624;BME280;6377;42.836;23.998;2023-12-20T05:19:58;95605.19;;;1.23;100.00
12624;BME280;6377;42.836;23.998;2023-12-20T05:22:41;95593.25;;;1.09;100.00
12624;BME280;6377;42.836;23.998;2023-12-20T05:25:12;95547.66;;;0.72;100.00
12624;BME280;6377;42.836;23.998;2023-12-20T05:28:11;95567.28;;;0.87;100.00
12624;BME280;6377;42.836;23.998;2023-12-20T05:30:56;95588.78;;;0.89;100.00
12624;BME280;6377;42.836;23.998;2023-12-20T05:33:32;95598.41;;;0.78;100.00
12624;BME280;6377;42.836;23.998;2023-12-20T05:36:01;95471.25;;;0.08;100.00
12624;BME280;6377;42.836;23.998;2023-12-20T05:38:29;95452.84;;;0.00;100.00
12624;BME280;6377;42.836;23.998;2023-12-20T05:40:59;95574.84;;;0.90;100.00
12624;BME280;6377;42.836;23.998;2023-12-20T05:43:27;95533.00;;;0.60;100.00
12624;BME280;6377;42.836;23.998;2023-12-20T05:45:58;95573.47;;;1.07;100.00
12624;BME280;6377;42.836;23.998;2023-12-20T05:48:29;95492.34;;;0.48;100.00
12624;BME280;6377;42.836;23.998;2023-12-20T05:57:35;95575.50;;;0.49;100.00
12624;BME280;6377;42.836;23.998;2023-12-20T06:30:03;95507.75;;;0.07;100.00
12624;BME280;6377;42.836;23.998;2023-12-20T06:33:14;95541.81;;;0.37;100.00
12624;BME280;6377;42.836;23.998;2023-12-20T06:35:52;95509.91;;;0.13;100.00
12624;BME280;6377;42.836;23.998;2023-12-20T06:47:22;95525.44;;;0.57;100.00
12624;BME280;6377;42.836;23.998;2023-12-20T06:49:50;95440.97;;;0.29;100.00
12624;BME280;6377;42.836;23.998;2023-12-20T06:52:18;95429.47;;;0.43;100.00
12624;BME280;6377;42.836;23.998;2023-12-20T06:54:46;95562.47;;;1.03;100.00
12624;BME280;6377;42.836;23.998;2023-12-20T06:57:14;95497.03;;;0.65;100.00
12624;BME280;6377;42.836;23.998;2023-12-20T06:59:48;95510.06;;;0.54;100.00
12624;BME280;6377;42.836;23.998;2023-12-20T07:02:22;95484.25;;;0.62;100.00
12624;BME280;6377;42.836;23.998;2023-12-20T07:04:59;95426.25;;;-0.15;100.00
12624;BME280;6377;42.836;23.998;2023-12-20T07:07:33;95502.63;;;0.61;100.00
12624;BME280;6377;42.836;23.998;2023-12-20T07:10:01;95510.53;;;1.02;100.00
12624;BME280;6377;42.836;23.998;2023-12-20T07:12:34;95465.78;;;0.76;100.00
12624;BME280;6377;42.836;23.998;2023-12-20T07:15:02;95468.34;;;0.87;100.00
12624;BME280;6377;42.836;23.998;2023-12-20T07:17:33;95462.88;;;0.90;100.00
12624;BME280;6377;42.836;23.998;2023-12-20T07:20:02;95500.88;;;1.13;100.00
12624;BME280;6377;42.836;23.998;2023-12-20T07:22:35;95444.13;;;0.76;100.00
12624;BME280;6377;42.836;23.998;2023-12-20T07:25:12;95477.44;;;0.93;100.00
12624;BME280;6377;42.836;23.998;2023-12-20T07:27:46;95454.41;;;0.77;100.00
12624;BME280;6377;42.836;23.998;2023-12-20T07:30:57;95485.38;;;1.12;100.00
12624;BME280;6377;42.836;23.998;2023-12-20T07:37:50;95412.94;;;0.85;100.00
12624;BME280;6377;42.836;23.998;2023-12-20T07:40:18;95467.97;;;1.33;100.00
12624;BME280;6377;42.836;23.998;2023-12-20T07:42:49;95370.53;;;0.94;100.00
12624;BME280;6377;42.836;23.998;2023-12-20T07:45:19;95472.22;;;1.76;100.00
12624;BME280;6377;42.836;23.998;2023-12-20T07:47:47;95321.53;;;0.79;100.00
12624;BME280;6377;42.836;23.998;2023-12-20T07:50:15;95466.06;;;1.86;100.00
12624;BME280;6377;42.836;23.998;2023-12-20T07:52:44;95428.72;;;1.76;100.00
12624;BME280;6377;42.836;23.998;2023-12-20T07:55:25;95417.91;;;1.81;100.00
12624;BME280;6377;42.836;23.998;2023-12-20T07:57:53;95365.13;;;1.67;100.00
12624;BME280;6377;42.836;23.998;2023-12-20T08:00:25;95321.66;;;1.68;100.00
12624;BME280;6377;42.836;23.998;2023-12-20T08:02:53;95426.56;;;2.31;100.00
12624;BME280;6377;42.836;23.998;2023-12-20T08:05:21;95447.16;;;2.34;100.00
12624;BME280;6377;42.836;23.998;2023-12-20T08:07:53;95454.22;;;2.62;100.00
12624;BME280;6377;42.836;23.998;2023-12-20T08:10:20;95445.00;;;2.48;100.00
12624;BME280;6377;42.836;23.998;2023-12-20T08:12:47;95413.13;;;2.54;100.00
12624;BME280;6377;42.836;23.998;2023-12-20T08:15:15;95384.00;;;2.68;100.00
12624;BME280;6377;42.836;23.998;2023-12-20T08:17:42;95398.56;;;3.00;100.00
12624;BME280;6377;42.836;23.998;2023-12-20T08:20:27;95398.00;;;3.15;100.00
12624;BME280;6377;42.836;23.998;2023-12-20T08:22:56;95388.91;;;3.19;100.00
12624;BME280;6377;42.836;23.998;2023-12-20T08:25:43;95417.22;;;3.24;100.00
12624;BME280;6377;42.836;23.998;2023-12-20T08:28:14;95415.28;;;3.26;100.00
12624;BME280;6377;42.836;23.998;2023-12-20T08:30:42;95398.66;;;3.36;100.00
12624;BME280;6377;42.836;23.998;2023-12-20T08:33:09;95356.16;;;3.34;100.00
12624;BME280;6377;42.836;23.998;2023-12-20T08:35:38;95380.22;;;3.75;100.00
12624;BME280;6377;42.836;23.998;2023-12-20T08:38:07;95365.59;;;3.82;100.00
12624;BME280;6377;42.836;23.998;2023-12-20T08:40:34;95318.22;;;3.58;100.00
12624;BME280;6377;42.836;23.998;2023-12-20T08:43:02;95354.13;;;4.20;100.00
12624;BME280;6377;42.836;23.998;2023-12-20T08:45:29;95354.03;;;4.47;100.00
12624;BME280;6377;42.836;23.998;2023-12-20T08:47:56;95364.91;;;4.70;100.00
12624;BME280;6377;42.836;23.998;2023-12-20T08:50:23;95358.25;;;4.93;100.00
12624;BME280;6377;42.836;23.998;2023-12-20T08:52:51;95355.13;;;5.15;100.00
12624;BME280;6377;42.836;23.998;2023-12-20T08:55:20;95352.41;;;5.50;100.00
12624;BME280;6377;42.836;23.998;2023-12-20T08:57:47;95307.78;;;5.76;100.00
12624;BME280;6377;42.836;23.998;2023-12-20T09:00:15;95406.38;;;6.54;100.00
12624;BME280;6377;42.836;23.998;2023-12-20T09:02:42;95324.44;;;6.67;100.00
12624;BME280;6377;42.836;23.998;2023-12-20T09:05:09;95320.81;;;7.16;100.00
12624;BME280;6377;42.836;23.998;2023-12-20T09:07:36;95296.31;;;7.32;87.62
12624;BME280;6377;42.836;23.998;2023-12-20T09:10:04;95252.06;;;7.44;80.97
12624;BME280;6377;42.836;23.998;2023-12-20T09:12:32;95330.09;;;8.14;75.84
12624;BME280;6377;42.836;23.998;2023-12-20T09:14:59;95300.50;;;8.12;74.35
12624;BME280;6377;42.836;23.998;2023-12-20T09:17:28;95278.72;;;8.18;72.73
12624;BME280;6377;42.836;23.998;2023-12-20T09:19:55;95298.13;;;8.79;68.52
12624;BME280;6377;42.836;23.998;2023-12-20T09:22:22;95256.13;;;8.77;70.25
12624;BME280;6377;42.836;23.998;2023-12-20T09:24:49;95219.25;;;8.92;64.35
12624;BME280;6377;42.836;23.998;2023-12-20T09:27:16;95247.88;;;9.32;67.88
12624;BME280;6377;42.836;23.998;2023-12-20T09:29:45;95253.25;;;9.68;60.15
12624;BME280;6377;42.836;23.998;2023-12-20T09:32:14;95249.56;;;9.98;58.81
12624;BME280;6377;42.836;23.998;2023-12-20T09:34:41;95231.97;;;10.05;59.04
12624;BME280;6377;42.836;23.998;2023-12-20T09:37:08;95267.03;;;10.29;54.66
12624;BME280;6377;42.836;23.998;2023-12-20T09:39:35;95241.16;;;10.45;54.12
12624;BME280;6377;42.836;23.998;2023-12-20T09:42:04;95268.66;;;10.65;54.27
12624;BME280;6377;42.836;23.998;2023-12-20T09:44:32;95213.34;;;10.49;54.01
12624;BME280;6377;42.836;23.998;2023-12-20T09:47:02;95202.53;;;10.23;56.25
12624;BME280;6377;42.836;23.998;2023-12-20T09:49:30;95207.75;;;10.38;55.84
12624;BME280;6377;42.836;23.998;2023-12-20T09:51:57;95197.41;;;10.07;55.72
12624;BME280;6377;42.836;23.998;2023-12-20T09:54:28;95205.50;;;9.84;55.82
12624;BME280;6377;42.836;23.998;2023-12-20T09:56:56;95219.53;;;9.70;58.58
12624;BME280;6377;42.836;23.998;2023-12-20T09:59:23;95215.38;;;9.46;59.24
12624;BME280;6377;42.836;23.998;2023-12-20T10:01:51;95198.63;;;9.25;62.40
12624;BME280;6377;42.836;23.998;2023-12-20T10:04:22;95234.19;;;9.14;63.06
12624;BME280;6377;42.836;23.998;2023-12-20T10:06:51;95161.69;;;8.58;65.34
12624;BME280;6377;42.836;23.998;2023-12-20T10:09:18;95086.97;;;8.14;67.09
12624;BME280;6377;42.836;23.998;2023-12-20T10:11:45;95171.19;;;8.67;65.99
12624;BME280;6377;42.836;23.998;2023-12-20T10:14:13;95174.53;;;8.61;72.79
12624;BME280;6377;42.836;23.998;2023-12-20T10:16:41;95217.72;;;8.97;74.84
12624;BME280;6377;42.836;23.998;2023-12-20T10:19:08;95170.28;;;8.89;76.33
12624;BME280;6377;42.836;23.998;2023-12-20T10:21:37;95195.25;;;9.31;74.48
12624;BME280;6377;42.836;23.998;2023-12-20T10:24:05;95162.31;;;9.27;69.84
12624;BME280;6377;42.836;23.998;2023-12-20T10:26:32;95172.06;;;9.41;70.56
12624;BME280;6377;42.836;23.998;2023-12-20T10:29:00;95164.25;;;9.83;66.06
12624;BME280;6377;42.836;23.998;2023-12-20T10:31:30;95163.72;;;10.45;68.36
12624;BME280;6377;42.836;23.998;2023-12-20T10:33:58;95135.59;;;10.93;68.94
12624;BME280;6377;42.836;23.998;2023-12-20T10:36:28;95138.88;;;11.29;57.46
12624;BME280;6377;42.836;23.998;2023-12-20T10:38:57;95156.97;;;11.66;52.58
12624;BME280;6377;42.836;23.998;2023-12-20T10:41:26;95137.44;;;11.33;54.88
12624;BME280;6377;42.836;23.998;2023-12-20T10:43:59;95144.81;;;11.38;55.40
12624;BME280;6377;42.836;23.998;2023-12-20T10:46:27;95172.13;;;11.72;58.00
12624;BME280;6377;42.836;23.998;2023-12-20T10:48:56;95169.28;;;11.80;57.34
12624;BME280;6377;42.836;23.998;2023-12-20T10:51:24;95128.53;;;11.41;54.10
12624;BME280;6377;42.836;23.998;2023-12-20T10:53:53;94993.31;;;10.47;58.53
12624;BME280;6377;42.836;23.998;2023-12-20T10:56:37;95120.56;;;11.34;56.23
12624;BME280;6377;42.836;23.998;2023-12-20T10:59:05;95104.41;;;11.22;55.15
12624;BME280;6377;42.836;23.998;2023-12-20T11:01:36;94984.38;;;10.55;57.81
12624;BME280;6377;42.836;23.998;2023-12-20T11:04:06;95026.59;;;11.10;54.87
12624;BME280;6377;42.836;23.998;2023-12-20T11:06:45;95102.28;;;11.93;55.70
12624;BME280;6377;42.836;23.998;2023-12-20T11:09:22;95148.69;;;12.69;55.51
12624;BME280;6377;42.836;23.998;2023-12-20T11:12:02;95112.53;;;13.01;53.16
12624;BME280;6377;42.836;23.998;2023-12-20T11:14:39;95130.00;;;13.55;53.25
12624;BME280;6377;42.836;23.998;2023-12-20T11:17:08;94954.56;;;12.85;51.61
12624;BME280;6377;42.836;23.998;2023-12-20T11:19:38;94977.97;;;13.08;51.57
12624;BME280;6377;42.836;23.998;2023-12-20T11:22:29;95032.91;;;13.59;49.36
12624;BME280;6377;42.836;23.998;2023-12-20T11:27:28;95111.97;;;14.08;49.87
12624;BME280;6377;42.836;23.998;2023-12-20T11:30:02;94973.44;;;13.15;51.57
12624;BME280;6377;42.836;23.998;2023-12-20T11:32:34;95097.75;;;13.89;50.52
12624;BME280;6377;42.836;23.998;2023-12-20T11:35:17;95084.00;;;13.61;51.58
12624;BME280;6377;42.836;23.998;2023-12-20T11:37:45;95087.72;;;13.46;54.08
12624;BME280;6377;42.836;23.998;2023-12-20T11:40:15;95076.31;;;13.39;52.66
12624;BME280;6377;42.836;23.998;2023-12-20T11:42:44;95078.19;;;13.26;51.21
12624;BME280;6377;42.836;23.998;2023-12-20T11:45:14;95070.88;;;13.15;50.35
12624;BME280;6377;42.836;23.998;2023-12-20T11:47:42;95021.75;;;12.66;54.65
12624;BME280;6377;42.836;23.998;2023-12-20T11:50:11;95065.38;;;12.83;55.29
12624;BME280;6377;42.836;23.998;2023-12-20T11:52:38;95057.22;;;12.85;58.90
12624;BME280;6377;42.836;23.998;2023-12-20T11:55:05;95032.34;;;12.73;61.00
12624;BME280;6377;42.836;23.998;2023-12-20T11:57:33;95030.72;;;12.65;62.01
12624;BME280;6377;42.836;23.998;2023-12-20T12:00:02;94942.25;;;12.14;60.74
12624;BME280;6377;42.836;23.998;2023-12-20T12:02:30;95050.69;;;12.81;57.16
12624;BME280;6377;42.836;23.998;2023-12-20T12:04:57;94988.53;;;12.31;58.56
12624;BME280;6377;42.836;23.998;2023-12-20T12:07:25;95037.66;;;12.73;57.33
12624;BME280;6377;42.836;23.998;2023-12-20T12:09:52;94877.44;;;11.57;61.13
12624;BME280;6377;42.836;23.998;2023-12-20T12:12:20;94984.47;;;12.35;59.90
12624;BME280;6377;42.836;23.998;2023-12-20T12:14:48;95031.97;;;12.50;57.79
12624;BME280;6377;42.836;23.998;2023-12-20T12:17:17;95029.69;;;12.60;57.93
12624;BME280;6377;42.836;23.998;2023-12-20T12:19:44;94959.81;;;12.08;52.64
12624;BME280;6377;42.836;23.998;2023-12-20T12:22:13;95024.41;;;12.60;53.73
12624;BME280;6377;42.836;23.998;2023-12-20T12:24:42;94870.31;;;11.64;49.22
12624;BME280;6377;42.836;23.998;2023-12-20T12:27:10;95023.38;;;12.61;52.17
12624;BME280;6377;42.836;23.998;2023-12-20T12:29:37;94990.38;;;12.17;51.41
12624;BME280;6377;42.836;23.998;2023-12-20T12:32:05;95012.59;;;12.49;52.64
12624;BME280;6377;42.836;23.998;2023-12-20T12:34:34;94999.94;;;12.31;52.28
12624;BME280;6377;42.836;23.998;2023-12-20T12:37:02;95009.72;;;12.57;50.15
12624;BME280;6377;42.836;23.998;2023-12-20T12:39:30;95012.38;;;12.64;48.75
12624;BME280;6377;42.836;23.998;2023-12-20T12:41:57;95011.53;;;12.70;47.99
12624;BME280;6377;42.836;23.998;2023-12-20T12:44:24;94969.91;;;12.57;47.01
12624;BME280;6377;42.836;23.998;2023-12-20T12:46:52;95001.66;;;12.97;46.90
12624;BME280;6377;42.836;23.998;2023-12-20T12:49:20;94877.00;;;12.19;46.79
12624;BME280;6377;42.836;23.998;2023-12-20T12:51:49;95003.16;;;13.37;44.99
12624;BME280;6377;42.836;23.998;2023-12-20T12:54:16;94871.13;;;12.68;44.38
12624;BME280;6377;42.836;23.998;2023-12-20T12:56:43;94996.97;;;13.56;45.38
12624;BME280;6377;42.836;23.998;2023-12-20T12:59:12;95003.03;;;13.63;44.73
12624;BME280;6377;42.836;23.998;2023-12-20T13:01:39;95003.59;;;13.72;45.14
12624;BME280;6377;42.836;23.998;2023-12-20T13:04:07;94975.38;;;13.39;43.93
12624;BME280;6377;42.836;23.998;2023-12-20T13:06:36;95030.59;;;13.69;44.43
12624;BME280;6377;42.836;23.998;2023-12-20T13:09:05;94963.59;;;13.29;44.31
12624;BME280;6377;42.836;23.998;2023-12-20T13:11:32;94890.22;;;12.90;44.91
12624;BME280;6377;42.836;23.998;2023-12-20T13:14:00;95020.19;;;13.67;45.16
12624;BME280;6377;42.836;23.998;2023-12-20T13:16:29;94838.41;;;12.36;44.19
12624;BME280;6377;42.836;23.998;2023-12-20T13:18:56;95049.41;;;13.67;44.09
12624;BME280;6377;42.836;23.998;2023-12-20T13:21:25;94897.00;;;12.79;44.85
12624;BME280;6377;42.836;23.998;2023-12-20T13:23:52;94825.59;;;12.27;43.93
12624;BME280;6377;42.836;23.998;2023-12-20T13:26:21;94862.22;;;12.50;42.92
12624;BME280;6377;42.836;23.998;2023-12-20T13:28:48;95019.81;;;13.57;42.63
12624;BME280;6377;42.836;23.998;2023-12-20T13:31:15;95037.56;;;13.63;41.95
12624;BME280;6377;42.836;23.998;2023-12-20T13:33:42;94839.38;;;12.49;42.69
12624;BME280;6377;42.836;23.998;2023-12-20T13:36:09;95007.34;;;13.58;42.83
12624;BME280;6377;42.836;23.998;2023-12-20T13:38:37;95009.78;;;13.59;42.56
12624;BME280;6377;42.836;23.998;2023-12-20T13:41:04;95012.09;;;13.56;43.36
12624;BME280;6377;42.836;23.998;2023-12-20T13:43:33;95010.88;;;13.52;43.78
12624;BME280;6377;42.836;23.998;2023-12-20T13:46:01;94941.78;;;13.07;44.36
12624;BME280;6377;42.836;23.998;2023-12-20T13:48:28;95000.25;;;13.45;48.53
12624;BME280;6377;42.836;23.998;2023-12-20T13:50:56;94953.31;;;12.88;47.69
12624;BME280;6377;42.836;23.998;2023-12-20T13:53:24;94998.56;;;13.19;47.19
12624;BME280;6377;42.836;23.998;2023-12-20T13:55:51;95001.25;;;13.06;46.05
12624;BME280;6377;42.836;23.998;2023-12-20T13:58:18;94894.13;;;12.23;48.33
12624;BME280;6377;42.836;23.998;2023-12-20T14:00:47;94951.94;;;12.72;51.19
12624;BME280;6377;42.836;23.998;2023-12-20T14:03:14;95027.41;;;12.89;50.87
12624;BME280;6377;42.836;23.998;2023-12-20T14:05:41;94939.78;;;12.32;45.63
12624;BME280;6377;42.836;23.998;2023-12-20T14:08:08;94944.28;;;12.31;48.54
12624;BME280;6377;42.836;23.998;2023-12-20T14:10:36;94898.84;;;11.95;46.30
12624;BME280;6377;42.836;23.998;2023-12-20T14:13:04;94977.69;;;12.39;48.99
12624;BME280;6377;42.836;23.998;2023-12-20T14:15:31;94953.50;;;12.09;49.29
12624;BME280;6377;42.836;23.998;2023-12-20T14:18:05;94941.84;;;11.84;48.10
12624;BME280;6377;42.836;23.998;2023-12-20T14:20:33;94948.38;;;11.88;48.51
12624;BME280;6377;42.836;23.998;2023-12-20T14:23:00;94950.41;;;11.99;45.85
12624;BME280;6377;42.836;23.998;2023-12-20T14:25:28;94958.16;;;12.07;45.97
12624;BME280;6377;42.836;23.998;2023-12-20T14:27:56;94934.94;;;11.96;45.44
12624;BME280;6377;42.836;23.998;2023-12-20T14:30:23;94963.88;;;12.17;45.90
12624;BME280;6377;42.836;23.998;2023-12-20T14:32:53;94933.88;;;12.04;49.16
12624;BME280;6377;42.836;23.998;2023-12-20T14:35:22;94925.78;;;11.86;48.84
12624;BME280;6377;42.836;23.998;2023-12-20T14:37:49;94839.31;;;11.19;48.92
12624;BME280;6377;42.836;23.998;2023-12-20T14:40:17;94945.31;;;11.85;47.86
12624;BME280;6377;42.836;23.998;2023-12-20T14:42:44;94895.34;;;11.49;48.52
12624;BME280;6377;42.836;23.998;2023-12-20T14:45:12;94883.94;;;11.35;50.99
12624;BME280;6377;42.836;23.998;2023-12-20T14:47:39;94949.81;;;11.71;52.75
12624;BME280;6377;42.836;23.998;2023-12-20T14:50:08;94952.41;;;11.58;51.92
12624;BME280;6377;42.836;23.998;2023-12-20T14:52:37;94945.00;;;11.20;50.50
12624;BME280;6377;42.836;23.998;2023-12-20T14:55:05;94968.03;;;11.27;54.53
12624;BME280;6377;42.836;23.998;2023-12-20T14:57:32;94951.00;;;10.88;57.22
12624;BME280;6377;42.836;23.998;2023-12-20T14:59:59;94944.94;;;10.53;61.03
12624;BME280;6377;42.836;23.998;2023-12-20T15:02:27;94960.66;;;10.34;60.60
12624;BME280;6377;42.836;23.998;2023-12-20T15:04:54;94896.66;;;9.76;59.14
12624;BME280;6377;42.836;23.998;2023-12-20T15:07:21;94938.41;;;9.94;60.57